sensor_id;sensor_type;location;lat;lon;timestamp;P1;durP1;ratioP1;P2;durP2;ratioP2
21777;SDS011;11050;52.222;20.916;2023-04-24T00:00:11;15.00;;;8.73;;
21777;SDS011;11050;52.222;20.916;2023-04-24T00:02:44;13.65;;;9.93;;
21777;SDS011;11050;52.222;20.916;2023-04-24T00:05:13;13.30;;;9.48;;
21777;SDS011;11050;52.222;20.916;2023-04-24T00:07:43;14.07;;;9.20;;
21777;SDS011;11050;52.222;20.916;2023-04-24T00:10:10;11.38;;;8.57;;
21777;SDS011;11050;52.222;20.916;2023-04-24T00:12:37;13.48;;;9.48;;
21777;SDS011;11050;52.222;20.916;2023-04-24T00:15:03;13.45;;;9.88;;
21777;SDS011;11050;52.222;20.916;2023-04-24T00:17:30;15.07;;;9.63;;
21777;SDS011;11050;52.222;20.916;2023-04-24T00:19:56;12.25;;;8.20;;
21777;SDS011;11050;52.222;20.916;2023-04-24T00:22:26;13.93;;;9.15;;
21777;SDS011;11050;52.222;20.916;2023-04-24T00:24:53;11.80;;;9.02;;
21777;SDS011;11050;52.222;20.916;2023-04-24T00:27:20;12.75;;;8.75;;
21777;SDS011;11050;52.222;20.916;2023-04-24T00:29:45;14.02;;;9.23;;
21777;SDS011;11050;52.222;20.916;2023-04-24T00:32:12;15.55;;;9.35;;
21777;SDS011;11050;52.222;20.916;2023-04-24T00:34:38;13.30;;;9.98;;
21777;SDS011;11050;52.222;20.916;2023-04-24T00:37:05;12.90;;;9.57;;
21777;SDS011;11050;52.222;20.916;2023-04-24T00:39:31;14.73;;;10.07;;
21777;SDS011;11050;52.222;20.916;2023-04-24T00:41:57;12.82;;;9.63;;
21777;SDS011;11050;52.222;20.916;2023-04-24T00:44:24;17.10;;;9.80;;
21777;SDS011;11050;52.222;20.916;2023-04-24T00:46:50;14.95;;;9.88;;
21777;SDS011;11050;52.222;20.916;2023-04-24T00:49:19;16.23;;;10.68;;
21777;SDS011;11050;52.222;20.916;2023-04-24T00:51:48;17.08;;;10.50;;
21777;SDS011;11050;52.222;20.916;2023-04-24T00:54:16;13.38;;;9.32;;
21777;SDS011;11050;52.222;20.916;2023-04-24T00:56:43;14.05;;;10.23;;
21777;SDS011;11050;52.222;20.916;2023-04-24T00:59:10;17.75;;;10.65;;
21777;SDS011;11050;52.222;20.916;2023-04-24T01:01:38;15.05;;;9.57;;
21777;SDS011;11050;52.222;20.916;2023-04-24T01:04:07;13.98;;;9.98;;
21777;SDS011;11050;52.222;20.916;2023-04-24T01:06:36;15.63;;;9.60;;
21777;SDS011;11050;52.222;20.916;2023-04-24T01:09:05;16.45;;;10.00;;
21777;SDS011;11050;52.222;20.916;2023-04-24T01:11:33;16.50;;;9.75;;
21777;SDS011;11050;52.222;20.916;2023-04-24T01:13:59;15.63;;;10.10;;
21777;SDS011;11050;52.222;20.916;2023-04-24T01:16:26;14.85;;;10.15;;
21777;SDS011;11050;52.222;20.916;2023-04-24T01:18:52;14.80;;;9.43;;
21777;SDS011;11050;52.222;20.916;2023-04-24T01:21:17;14.73;;;9.70;;
21777;SDS011;11050;52.222;20.916;2023-04-24T01:23:46;13.77;;;10.23;;
21777;SDS011;11050;52.222;20.916;2023-04-24T01:26:12;12.05;;;9.07;;
21777;SDS011;11050;52.222;20.916;2023-04-24T01:28:40;14.30;;;9.90;;
21777;SDS011;11050;52.222;20.916;2023-04-24T01:31:06;14.57;;;9.90;;
21777;SDS011;11050;52.222;20.916;2023-04-24T01:33:32;15.50;;;10.30;;
21777;SDS011;11050;52.222;20.916;2023-04-24T01:35:58;14.07;;;9.95;;
21777;SDS011;11050;52.222;20.916;2023-04-24T01:38:24;16.15;;;9.85;;
21777;SDS011;11050;52.222;20.916;2023-04-24T01:40:50;14.23;;;9.55;;
21777;SDS011;11050;52.222;20.916;2023-04-24T01:43:17;15.80;;;9.80;;
21777;SDS011;11050;52.222;20.916;2023-04-24T01:45:44;13.82;;;9.40;;
21777;SDS011;11050;52.222;20.916;2023-04-24T01:48:11;13.35;;;10.05;;
21777;SDS011;11050;52.222;20.916;2023-04-24T01:50:37;13.93;;;9.85;;
21777;SDS011;11050;52.222;20.916;2023-04-24T01:53:03;15.65;;;10.32;;
21777;SDS011;11050;52.222;20.916;2023-04-24T01:55:29;15.15;;;10.75;;
21777;SDS011;11050;52.222;20.916;2023-04-24T01:57:55;14.25;;;10.63;;
21777;SDS011;11050;52.222;20.916;2023-04-24T02:00:22;16.08;;;9.95;;
21777;SDS011;11050;52.222;20.916;2023-04-24T02:02:49;14.70;;;9.85;;
21777;SDS011;11050;52.222;20.916;2023-04-24T02:05:15;15.85;;;10.55;;
21777;SDS011;11050;52.222;20.916;2023-04-24T02:07:41;14.25;;;9.95;;
21777;SDS011;11050;52.222;20.916;2023-04-24T02:10:06;16.77;;;10.20;;
21777;SDS011;11050;52.222;20.916;2023-04-24T02:12:33;17.90;;;10.68;;
21777;SDS011;11050;52.222;20.916;2023-04-24T02:14:58;13.85;;;10.95;;
21777;SDS011;11050;52.222;20.916;2023-04-24T02:17:24;14.15;;;10.43;;
21777;SDS011;11050;52.222;20.916;2023-04-24T02:19:50;15.00;;;11.10;;
21777;SDS011;11050;52.222;20.916;2023-04-24T02:22:16;13.52;;;10.18;;
21777;SDS011;11050;52.222;20.916;2023-04-24T02:24:42;13.80;;;10.45;;
21777;SDS011;11050;52.222;20.916;2023-04-24T02:27:08;15.90;;;10.82;;
21777;SDS011;11050;52.222;20.916;2023-04-24T02:29:33;15.00;;;10.23;;
21777;SDS011;11050;52.222;20.916;2023-04-24T02:31:59;14.23;;;10.67;;
21777;SDS011;11050;52.222;20.916;2023-04-24T02:34:25;16.42;;;10.20;;
21777;SDS011;11050;52.222;20.916;2023-04-24T02:36:51;15.52;;;10.85;;
21777;SDS011;11050;52.222;20.916;2023-04-24T02:39:18;17.95;;;10.80;;
21777;SDS011;11050;52.222;20.916;2023-04-24T02:41:45;20.23;;;10.85;;
21777;SDS011;11050;52.222;20.916;2023-04-24T02:44:11;16.10;;;10.50;;
21777;SDS011;11050;52.222;20.916;2023-04-24T02:46:36;16.73;;;11.50;;
21777;SDS011;11050;52.222;20.916;2023-04-24T02:49:02;16.52;;;11.15;;
21777;SDS011;11050;52.222;20.916;2023-04-24T02:51:29;19.95;;;11.45;;
21777;SDS011;11050;52.222;20.916;2023-04-24T02:53:55;16.73;;;11.02;;
21777;SDS011;11050;52.222;20.916;2023-04-24T02:56:21;15.25;;;10.30;;
21777;SDS011;11050;52.222;20.916;2023-04-24T02:58:46;16.30;;;10.57;;
21777;SDS011;11050;52.222;20.916;2023-04-24T03:01:12;17.80;;;11.18;;
21777;SDS011;11050;52.222;20.916;2023-04-24T03:03:38;13.52;;;10.23;;
21777;SDS011;11050;52.222;20.916;2023-04-24T03:06:04;13.30;;;9.70;;
21777;SDS011;11050;52.222;20.916;2023-04-24T03:08:31;15.13;;;10.57;;
21777;SDS011;11050;52.222;20.916;2023-04-24T03:10:57;18.77;;;10.90;;
21777;SDS011;11050;52.222;20.916;2023-04-24T03:13:23;19.20;;;11.23;;
21777;SDS011;11050;52.222;20.916;2023-04-24T03:15:49;18.73;;;10.55;;
21777;SDS011;11050;52.222;20.916;2023-04-24T03:18:15;19.30;;;10.88;;
21777;SDS011;11050;52.222;20.916;2023-04-24T03:20:40;18.65;;;11.13;;
21777;SDS011;11050;52.222;20.916;2023-04-24T03:23:06;17.75;;;10.68;;
21777;SDS011;11050;52.222;20.916;2023-04-24T03:25:32;17.48;;;10.68;;
21777;SDS011;11050;52.222;20.916;2023-04-24T03:27:58;18.00;;;10.60;;
21777;SDS011;11050;52.222;20.916;2023-04-24T03:30:23;17.65;;;12.32;;
21777;SDS011;11050;52.222;20.916;2023-04-24T03:32:49;23.80;;;15.25;;
21777;SDS011;11050;52.222;20.916;2023-04-24T03:35:15;43.20;;;24.42;;
21777;SDS011;11050;52.222;20.916;2023-04-24T03:37:41;52.55;;;29.98;;
21777;SDS011;11050;52.222;20.916;2023-04-24T03:40:06;51.08;;;30.33;;
21777;SDS011;11050;52.222;20.916;2023-04-24T03:42:33;44.92;;;26.48;;
21777;SDS011;11050;52.222;20.916;2023-04-24T03:44:59;41.22;;;24.13;;
21777;SDS011;11050;52.222;20.916;2023-04-24T03:47:25;31.60;;;19.45;;
21777;SDS011;11050;52.222;20.916;2023-04-24T03:49:50;27.30;;;14.85;;
21777;SDS011;11050;52.222;20.916;2023-04-24T03:52:17;19.58;;;13.02;;
21777;SDS011;11050;52.222;20.916;2023-04-24T03:54:42;18.88;;;12.35;;
21777;SDS011;11050;52.222;20.916;2023-04-24T03:57:08;15.23;;;11.30;;
21777;SDS011;11050;52.222;20.916;2023-04-24T03:59:34;14.50;;;10.85;;
21777;SDS011;11050;52.222;20.916;2023-04-24T04:02:00;13.90;;;10.35;;
21777;SDS011;11050;52.222;20.916;2023-04-24T04:04:25;15.05;;;10.48;;
21777;SDS011;11050;52.222;20.916;2023-04-24T04:06:51;20.35;;;10.38;;
21777;SDS011;11050;52.222;20.916;2023-04-24T04:09:18;16.55;;;10.80;;
21777;SDS011;11050;52.222;20.916;2023-04-24T04:11:44;16.42;;;10.27;;
21777;SDS011;11050;52.222;20.916;2023-04-24T04:14:10;17.42;;;10.63;;
21777;SDS011;11050;52.222;20.916;2023-04-24T04:16:35;16.10;;;10.48;;
21777;SDS011;11050;52.222;20.916;2023-04-24T04:19:01;17.92;;;10.27;;
21777;SDS011;11050;52.222;20.916;2023-04-24T04:21:28;18.90;;;10.93;;
21777;SDS011;11050;52.222;20.916;2023-04-24T04:23:55;19.25;;;10.38;;
21777;SDS011;11050;52.222;20.916;2023-04-24T04:26:21;17.58;;;10.35;;
21777;SDS011;11050;52.222;20.916;2023-04-24T04:28:50;17.35;;;10.23;;
21777;SDS011;11050;52.222;20.916;2023-04-24T04:31:17;18.30;;;10.25;;
21777;SDS011;11050;52.222;20.916;2023-04-24T04:33:44;18.17;;;10.32;;
21777;SDS011;11050;52.222;20.916;2023-04-24T04:36:10;16.10;;;10.63;;
21777;SDS011;11050;52.222;20.916;2023-04-24T04:38:37;26.33;;;11.38;;
21777;SDS011;11050;52.222;20.916;2023-04-24T04:41:03;17.42;;;10.82;;
21777;SDS011;11050;52.222;20.916;2023-04-24T04:43:29;13.88;;;10.43;;
21777;SDS011;11050;52.222;20.916;2023-04-24T04:45:56;15.52;;;11.07;;
21777;SDS011;11050;52.222;20.916;2023-04-24T04:48:23;21.42;;;11.50;;
21777;SDS011;11050;52.222;20.916;2023-04-24T04:50:49;15.82;;;10.50;;
21777;SDS011;11050;52.222;20.916;2023-04-24T04:53:15;15.35;;;10.02;;
21777;SDS011;11050;52.222;20.916;2023-04-24T04:55:40;15.60;;;10.38;;
21777;SDS011;11050;52.222;20.916;2023-04-24T04:58:06;19.73;;;11.75;;
21777;SDS011;11050;52.222;20.916;2023-04-24T05:00:32;16.92;;;10.68;;
21777;SDS011;11050;52.222;20.916;2023-04-24T05:03:01;14.32;;;10.40;;
21777;SDS011;11050;52.222;20.916;2023-04-24T05:05:27;14.55;;;11.18;;
21777;SDS011;11050;52.222;20.916;2023-04-24T05:07:54;20.20;;;11.70;;
21777;SDS011;11050;52.222;20.916;2023-04-24T05:10:20;16.45;;;10.98;;
21777;SDS011;11050;52.222;20.916;2023-04-24T05:12:45;13.80;;;10.73;;
21777;SDS011;11050;52.222;20.916;2023-04-24T05:15:11;18.77;;;10.98;;
21777;SDS011;11050;52.222;20.916;2023-04-24T05:17:37;16.60;;;11.77;;
21777;SDS011;11050;52.222;20.916;2023-04-24T05:20:04;16.38;;;11.18;;
21777;SDS011;11050;52.222;20.916;2023-04-24T05:22:32;19.20;;;11.32;;
21777;SDS011;11050;52.222;20.916;2023-04-24T05:24:57;21.02;;;11.80;;
21777;SDS011;11050;52.222;20.916;2023-04-24T05:27:24;17.55;;;11.77;;
21777;SDS011;11050;52.222;20.916;2023-04-24T05:29:50;25.50;;;11.65;;
21777;SDS011;11050;52.222;20.916;2023-04-24T05:32:16;20.75;;;11.10;;
21777;SDS011;11050;52.222;20.916;2023-04-24T05:34:42;18.15;;;11.07;;
21777;SDS011;11050;52.222;20.916;2023-04-24T05:37:07;23.95;;;11.27;;
21777;SDS011;11050;52.222;20.916;2023-04-24T05:39:35;20.55;;;11.77;;
21777;SDS011;11050;52.222;20.916;2023-04-24T05:42:01;22.45;;;11.55;;
21777;SDS011;11050;52.222;20.916;2023-04-24T05:44:29;18.23;;;10.88;;
21777;SDS011;11050;52.222;20.916;2023-04-24T05:46:55;23.70;;;11.25;;
21777;SDS011;11050;52.222;20.916;2023-04-24T05:49:21;19.55;;;10.80;;
21777;SDS011;11050;52.222;20.916;2023-04-24T05:51:47;20.75;;;10.80;;
21777;SDS011;11050;52.222;20.916;2023-04-24T05:54:13;24.48;;;10.98;;
21777;SDS011;11050;52.222;20.916;2023-04-24T05:56:39;13.30;;;10.27;;
21777;SDS011;11050;52.222;20.916;2023-04-24T05:59:06;21.10;;;10.95;;
21777;SDS011;11050;52.222;20.916;2023-04-24T06:01:32;17.25;;;10.40;;
21777;SDS011;11050;52.222;20.916;2023-04-24T06:03:58;22.30;;;11.00;;
21777;SDS011;11050;52.222;20.916;2023-04-24T06:06:24;20.50;;;10.50;;
21777;SDS011;11050;52.222;20.916;2023-04-24T06:08:50;24.10;;;11.13;;
21777;SDS011;11050;52.222;20.916;2023-04-24T06:11:16;19.95;;;10.57;;
21777;SDS011;11050;52.222;20.916;2023-04-24T06:13:42;22.65;;;10.60;;
21777;SDS011;11050;52.222;20.916;2023-04-24T06:16:08;24.17;;;11.07;;
21777;SDS011;11050;52.222;20.916;2023-04-24T06:18:34;14.68;;;10.10;;
21777;SDS011;11050;52.222;20.916;2023-04-24T06:21:00;21.20;;;10.73;;
21777;SDS011;11050;52.222;20.916;2023-04-24T06:23:26;15.57;;;10.20;;
21777;SDS011;11050;52.222;20.916;2023-04-24T06:25:51;16.92;;;10.48;;
21777;SDS011;11050;52.222;20.916;2023-04-24T06:28:17;18.05;;;10.32;;
21777;SDS011;11050;52.222;20.916;2023-04-24T06:30:43;21.35;;;10.57;;
21777;SDS011;11050;52.222;20.916;2023-04-24T06:33:09;14.80;;;9.55;;
21777;SDS011;11050;52.222;20.916;2023-04-24T06:35:35;16.60;;;11.50;;
21777;SDS011;11050;52.222;20.916;2023-04-24T06:38:03;23.88;;;10.77;;
21777;SDS011;11050;52.222;20.916;2023-04-24T06:40:29;15.55;;;10.00;;
21777;SDS011;11050;52.222;20.916;2023-04-24T06:42:55;17.75;;;11.30;;
21777;SDS011;11050;52.222;20.916;2023-04-24T06:45:22;19.95;;;11.45;;
21777;SDS011;11050;52.222;20.916;2023-04-24T06:47:48;15.43;;;9.60;;
21777;SDS011;11050;52.222;20.916;2023-04-24T06:50:14;21.35;;;9.45;;
21777;SDS011;11050;52.222;20.916;2023-04-24T06:52:40;23.25;;;9.88;;
21777;SDS011;11050;52.222;20.916;2023-04-24T06:55:06;14.07;;;9.52;;
21777;SDS011;11050;52.222;20.916;2023-04-24T06:57:32;20.20;;;10.35;;
21777;SDS011;11050;52.222;20.916;2023-04-24T06:59:58;15.95;;;8.80;;
21777;SDS011;11050;52.222;20.916;2023-04-24T07:02:24;16.67;;;8.95;;
21777;SDS011;11050;52.222;20.916;2023-04-24T07:04:50;14.98;;;9.10;;
21777;SDS011;11050;52.222;20.916;2023-04-24T07:07:16;15.25;;;9.05;;
21777;SDS011;11050;52.222;20.916;2023-04-24T07:09:42;14.10;;;9.38;;
21777;SDS011;11050;52.222;20.916;2023-04-24T07:12:09;15.38;;;8.45;;
21777;SDS011;11050;52.222;20.916;2023-04-24T07:14:38;27.58;;;9.68;;
21777;SDS011;11050;52.222;20.916;2023-04-24T07:17:05;17.08;;;8.50;;
21777;SDS011;11050;52.222;20.916;2023-04-24T07:19:31;14.73;;;9.18;;
21777;SDS011;11050;52.222;20.916;2023-04-24T07:22:00;14.15;;;9.27;;
21777;SDS011;11050;52.222;20.916;2023-04-24T07:24:26;13.38;;;9.20;;
21777;SDS011;11050;52.222;20.916;2023-04-24T07:26:52;19.40;;;9.38;;
21777;SDS011;11050;52.222;20.916;2023-04-24T07:29:19;14.80;;;9.20;;
21777;SDS011;11050;52.222;20.916;2023-04-24T07:31:45;15.32;;;9.68;;
21777;SDS011;11050;52.222;20.916;2023-04-24T07:34:12;17.77;;;10.52;;
21777;SDS011;11050;52.222;20.916;2023-04-24T07:36:37;16.98;;;10.77;;
21777;SDS011;11050;52.222;20.916;2023-04-24T07:39:04;14.02;;;9.73;;
21777;SDS011;11050;52.222;20.916;2023-04-24T07:41:30;15.48;;;9.95;;
21777;SDS011;11050;52.222;20.916;2023-04-24T07:43:56;25.83;;;10.85;;
21777;SDS011;11050;52.222;20.916;2023-04-24T07:46:23;16.20;;;9.35;;
21777;SDS011;11050;52.222;20.916;2023-04-24T07:48:49;15.75;;;9.60;;
21777;SDS011;11050;52.222;20.916;2023-04-24T07:51:16;17.80;;;9.93;;
21777;SDS011;11050;52.222;20.916;2023-04-24T07:53:42;21.05;;;10.35;;
21777;SDS011;11050;52.222;20.916;2023-04-24T07:56:08;28.55;;;10.27;;
21777;SDS011;11050;52.222;20.916;2023-04-24T07:58:34;14.93;;;10.30;;
21777;SDS011;11050;52.222;20.916;2023-04-24T08:01:00;13.68;;;9.27;;
21777;SDS011;11050;52.222;20.916;2023-04-24T08:03:26;15.63;;;9.80;;
21777;SDS011;11050;52.222;20.916;2023-04-24T08:05:52;18.90;;;9.55;;
21777;SDS011;11050;52.222;20.916;2023-04-24T08:08:19;18.02;;;9.43;;
21777;SDS011;11050;52.222;20.916;2023-04-24T08:10:47;14.90;;;9.85;;
21777;SDS011;11050;52.222;20.916;2023-04-24T08:13:13;15.93;;;10.40;;
21777;SDS011;11050;52.222;20.916;2023-04-24T08:15:38;12.63;;;9.40;;
21777;SDS011;11050;52.222;20.916;2023-04-24T08:18:04;14.43;;;9.27;;
21777;SDS011;11050;52.222;20.916;2023-04-24T08:20:30;15.55;;;10.00;;
21777;SDS011;11050;52.222;20.916;2023-04-24T08:22:56;15.93;;;9.82;;
21777;SDS011;11050;52.222;20.916;2023-04-24T08:25:22;19.33;;;9.85;;
21777;SDS011;11050;52.222;20.916;2023-04-24T08:27:50;17.20;;;9.90;;
21777;SDS011;11050;52.222;20.916;2023-04-24T08:30:17;16.27;;;9.88;;
21777;SDS011;11050;52.222;20.916;2023-04-24T08:32:43;17.85;;;10.18;;
21777;SDS011;11050;52.222;20.916;2023-04-24T08:35:09;21.35;;;10.85;;
21777;SDS011;11050;52.222;20.916;2023-04-24T08:37:35;24.30;;;10.90;;
21777;SDS011;11050;52.222;20.916;2023-04-24T08:40:02;20.92;;;10.95;;
21777;SDS011;11050;52.222;20.916;2023-04-24T08:42:41;26.50;;;12.43;;
21777;SDS011;11050;52.222;20.916;2023-04-24T08:45:11;18.17;;;10.98;;
21777;SDS011;11050;52.222;20.916;2023-04-24T08:47:38;19.05;;;10.07;;
21777;SDS011;11050;52.222;20.916;2023-04-24T08:50:05;17.50;;;9.63;;
21777;SDS011;11050;52.222;20.916;2023-04-24T08:52:33;21.42;;;9.85;;
21777;SDS011;11050;52.222;20.916;2023-04-24T08:55:00;17.83;;;9.80;;
21777;SDS011;11050;52.222;20.916;2023-04-24T08:57:27;13.68;;;8.60;;
21777;SDS011;11050;52.222;20.916;2023-04-24T08:59:54;15.60;;;9.70;;
21777;SDS011;11050;52.222;20.916;2023-04-24T09:02:22;14.93;;;9.45;;
21777;SDS011;11050;52.222;20.916;2023-04-24T09:04:49;16.77;;;10.00;;
21777;SDS011;11050;52.222;20.916;2023-04-24T09:07:17;14.85;;;8.77;;
21777;SDS011;11050;52.222;20.916;2023-04-24T09:09:44;24.63;;;9.00;;
21777;SDS011;11050;52.222;20.916;2023-04-24T09:12:10;14.20;;;9.15;;
21777;SDS011;11050;52.222;20.916;2023-04-24T09:14:37;14.48;;;8.75;;
21777;SDS011;11050;52.222;20.916;2023-04-24T09:17:07;14.52;;;8.93;;
21777;SDS011;11050;52.222;20.916;2023-04-24T09:19:33;11.98;;;8.63;;
21777;SDS011;11050;52.222;20.916;2023-04-24T09:21:59;12.30;;;8.20;;
21777;SDS011;11050;52.222;20.916;2023-04-24T09:24:30;13.48;;;8.65;;
21777;SDS011;11050;52.222;20.916;2023-04-24T09:26:57;19.33;;;8.77;;
21777;SDS011;11050;52.222;20.916;2023-04-24T09:29:24;19.48;;;8.52;;
21777;SDS011;11050;52.222;20.916;2023-04-24T09:31:50;15.70;;;8.27;;
21777;SDS011;11050;52.222;20.916;2023-04-24T09:34:20;10.05;;;7.95;;
21777;SDS011;11050;52.222;20.916;2023-04-24T09:36:52;11.80;;;8.13;;
21777;SDS011;11050;52.222;20.916;2023-04-24T09:39:18;13.45;;;8.35;;
21777;SDS011;11050;52.222;20.916;2023-04-24T09:44:15;18.17;;;8.95;;
21777;SDS011;11050;52.222;20.916;2023-04-24T09:46:49;15.52;;;8.95;;
21777;SDS011;11050;52.222;20.916;2023-04-24T09:49:26;17.02;;;8.65;;
21777;SDS011;11050;52.222;20.916;2023-04-24T09:52:06;16.88;;;8.75;;
21777;SDS011;11050;52.222;20.916;2023-04-24T09:54:34;10.55;;;7.18;;
21777;SDS011;11050;52.222;20.916;2023-04-24T09:57:03;8.95;;;6.95;;
21777;SDS011;11050;52.222;20.916;2023-04-24T09:59:32;12.57;;;7.30;;
21777;SDS011;11050;52.222;20.916;2023-04-24T10:01:58;11.20;;;7.78;;
21777;SDS011;11050;52.222;20.916;2023-04-24T10:04:26;13.18;;;7.68;;
21777;SDS011;11050;52.222;20.916;2023-04-24T10:06:55;13.73;;;7.85;;
21777;SDS011;11050;52.222;20.916;2023-04-24T10:09:22;12.52;;;7.32;;
21777;SDS011;11050;52.222;20.916;2023-04-24T10:11:51;14.05;;;7.88;;
21777;SDS011;11050;52.222;20.916;2023-04-24T10:14:23;12.70;;;7.00;;
21777;SDS011;11050;52.222;20.916;2023-04-24T10:16:53;10.90;;;7.22;;
21777;SDS011;11050;52.222;20.916;2023-04-24T10:19:21;10.02;;;7.07;;
21777;SDS011;11050;52.222;20.916;2023-04-24T10:21:50;9.45;;;6.70;;
21777;SDS011;11050;52.222;20.916;2023-04-24T10:24:18;7.07;;;6.00;;
21777;SDS011;11050;52.222;20.916;2023-04-24T10:26:46;8.27;;;6.43;;
21777;SDS011;11050;52.222;20.916;2023-04-24T10:29:14;9.15;;;7.20;;
21777;SDS011;11050;52.222;20.916;2023-04-24T10:31:42;11.05;;;7.20;;
21777;SDS011;11050;52.222;20.916;2023-04-24T10:34:10;10.80;;;6.93;;
21777;SDS011;11050;52.222;20.916;2023-04-24T10:36:41;13.18;;;6.53;;
21777;SDS011;11050;52.222;20.916;2023-04-24T10:39:13;11.40;;;7.07;;
21777;SDS011;11050;52.222;20.916;2023-04-24T10:41:41;12.40;;;7.45;;
21777;SDS011;11050;52.222;20.916;2023-04-24T10:44:07;9.35;;;7.20;;
21777;SDS011;11050;52.222;20.916;2023-04-24T10:46:36;10.68;;;7.63;;
21777;SDS011;11050;52.222;20.916;2023-04-24T10:49:05;10.40;;;7.20;;
21777;SDS011;11050;52.222;20.916;2023-04-24T10:51:44;10.85;;;7.32;;
21777;SDS011;11050;52.222;20.916;2023-04-24T10:56:53;10.00;;;7.60;;
21777;SDS011;11050;52.222;20.916;2023-04-24T10:59:49;11.65;;;7.80;;
21777;SDS011;11050;52.222;20.916;2023-04-24T11:02:37;9.80;;;7.80;;
21777;SDS011;11050;52.222;20.916;2023-04-24T11:05:08;15.15;;;8.27;;
21777;SDS011;11050;52.222;20.916;2023-04-24T11:11:02;9.95;;;8.25;;
21777;SDS011;11050;52.222;20.916;2023-04-24T11:19:07;12.98;;;7.90;;
21777;SDS011;11050;52.222;20.916;2023-04-24T11:34:51;8.48;;;7.28;;
21777;SDS011;11050;52.222;20.916;2023-04-24T11:37:23;11.27;;;6.32;;
21777;SDS011;11050;52.222;20.916;2023-04-24T11:39:55;9.10;;;7.10;;
21777;SDS011;11050;52.222;20.916;2023-04-24T11:42:23;9.57;;;7.40;;
21777;SDS011;11050;52.222;20.916;2023-04-24T11:44:51;12.20;;;7.18;;
21777;SDS011;11050;52.222;20.916;2023-04-24T11:47:20;7.90;;;6.82;;
21777;SDS011;11050;52.222;20.916;2023-04-24T11:50:07;10.95;;;7.10;;
21777;SDS011;11050;52.222;20.916;2023-04-24T11:52:46;8.80;;;6.72;;
21777;SDS011;11050;52.222;20.916;2023-04-24T11:57:39;12.20;;;6.72;;
21777;SDS011;11050;52.222;20.916;2023-04-24T12:00:20;9.93;;;6.20;;
21777;SDS011;11050;52.222;20.916;2023-04-24T12:02:49;9.70;;;6.30;;
21777;SDS011;11050;52.222;20.916;2023-04-24T12:05:20;7.22;;;5.60;;
21777;SDS011;11050;52.222;20.916;2023-04-24T12:07:48;8.80;;;5.85;;
21777;SDS011;11050;52.222;20.916;2023-04-24T12:10:14;10.70;;;6.70;;
21777;SDS011;11050;52.222;20.916;2023-04-24T12:12:48;9.23;;;6.65;;
21777;SDS011;11050;52.222;20.916;2023-04-24T12:15:16;10.23;;;6.38;;
21777;SDS011;11050;52.222;20.916;2023-04-24T12:17:44;7.28;;;6.32;;
21777;SDS011;11050;52.222;20.916;2023-04-24T12:20:11;8.50;;;5.95;;
21777;SDS011;11050;52.222;20.916;2023-04-24T12:25:17;10.30;;;5.88;;
21777;SDS011;11050;52.222;20.916;2023-04-24T12:27:44;7.07;;;6.15;;
21777;SDS011;11050;52.222;20.916;2023-04-24T12:30:16;9.95;;;6.75;;
21777;SDS011;11050;52.222;20.916;2023-04-24T12:32:43;6.38;;;5.35;;
21777;SDS011;11050;52.222;20.916;2023-04-24T12:35:21;8.90;;;5.47;;
21777;SDS011;11050;52.222;20.916;2023-04-24T12:37:48;10.07;;;5.93;;
21777;SDS011;11050;52.222;20.916;2023-04-24T12:40:17;9.02;;;5.57;;
21777;SDS011;11050;52.222;20.916;2023-04-24T12:42:46;9.38;;;6.93;;
21777;SDS011;11050;52.222;20.916;2023-04-24T12:45:16;16.80;;;6.85;;
21777;SDS011;11050;52.222;20.916;2023-04-24T12:47:44;18.80;;;6.30;;
21777;SDS011;11050;52.222;20.916;2023-04-24T12:50:13;19.20;;;5.28;;
21777;SDS011;11050;52.222;20.916;2023-04-24T12:52:40;15.70;;;4.95;;
21777;SDS011;11050;52.222;20.916;2023-04-24T12:55:08;18.75;;;4.95;;
21777;SDS011;11050;52.222;20.916;2023-04-24T12:57:35;24.02;;;4.63;;
21777;SDS011;11050;52.222;20.916;2023-04-24T13:00:02;12.98;;;5.10;;
21777;SDS011;11050;52.222;20.916;2023-04-24T13:02:32;17.70;;;4.20;;
21777;SDS011;11050;52.222;20.916;2023-04-24T13:04:58;14.27;;;4.32;;
21777;SDS011;11050;52.222;20.916;2023-04-24T13:07:25;20.58;;;4.07;;
21777;SDS011;11050;52.222;20.916;2023-04-24T13:09:52;15.50;;;4.30;;
21777;SDS011;11050;52.222;20.916;2023-04-24T13:12:19;11.98;;;4.38;;
21777;SDS011;11050;52.222;20.916;2023-04-24T13:14:46;9.55;;;3.60;;
21777;SDS011;11050;52.222;20.916;2023-04-24T13:17:12;8.00;;;3.97;;
21777;SDS011;11050;52.222;20.916;2023-04-24T13:19:39;9.30;;;4.57;;
21777;SDS011;11050;52.222;20.916;2023-04-24T13:22:08;4.28;;;3.70;;
21777;SDS011;11050;52.222;20.916;2023-04-24T13:24:36;6.40;;;4.40;;
21777;SDS011;11050;52.222;20.916;2023-04-24T13:27:03;5.43;;;3.92;;
21777;SDS011;11050;52.222;20.916;2023-04-24T13:29:29;15.48;;;4.97;;
21777;SDS011;11050;52.222;20.916;2023-04-24T13:31:55;7.07;;;4.15;;
21777;SDS011;11050;52.222;20.916;2023-04-24T13:34:21;5.75;;;4.35;;
21777;SDS011;11050;52.222;20.916;2023-04-24T13:36:52;11.52;;;4.50;;
21777;SDS011;11050;52.222;20.916;2023-04-24T13:39:20;6.20;;;3.92;;
21777;SDS011;11050;52.222;20.916;2023-04-24T13:41:47;5.60;;;4.00;;
21777;SDS011;11050;52.222;20.916;2023-04-24T13:44:13;5.78;;;4.38;;
21777;SDS011;11050;52.222;20.916;2023-04-24T13:46:41;7.55;;;4.20;;
21777;SDS011;11050;52.222;20.916;2023-04-24T13:49:09;9.32;;;4.88;;
21777;SDS011;11050;52.222;20.916;2023-04-24T13:51:37;8.32;;;4.65;;
21777;SDS011;11050;52.222;20.916;2023-04-24T13:54:03;8.05;;;4.35;;
21777;SDS011;11050;52.222;20.916;2023-04-24T13:56:29;8.73;;;4.82;;
21777;SDS011;11050;52.222;20.916;2023-04-24T13:58:55;7.40;;;4.50;;
21777;SDS011;11050;52.222;20.916;2023-04-24T14:01:21;7.15;;;4.13;;
21777;SDS011;11050;52.222;20.916;2023-04-24T14:03:51;6.93;;;4.55;;
21777;SDS011;11050;52.222;20.916;2023-04-24T14:06:18;7.53;;;4.25;;
21777;SDS011;11050;52.222;20.916;2023-04-24T14:08:45;8.05;;;4.10;;
21777;SDS011;11050;52.222;20.916;2023-04-24T14:11:12;6.13;;;4.60;;
21777;SDS011;11050;52.222;20.916;2023-04-24T14:13:39;5.38;;;4.57;;
21777;SDS011;11050;52.222;20.916;2023-04-24T14:16:09;9.98;;;4.75;;
21777;SDS011;11050;52.222;20.916;2023-04-24T14:18:36;9.10;;;4.78;;
21777;SDS011;11050;52.222;20.916;2023-04-24T14:21:02;7.20;;;3.97;;
21777;SDS011;11050;52.222;20.916;2023-04-24T14:23:29;4.85;;;4.35;;
21777;SDS011;11050;52.222;20.916;2023-04-24T14:25:55;6.88;;;4.57;;
21777;SDS011;11050;52.222;20.916;2023-04-24T14:28:22;6.20;;;4.47;;
21777;SDS011;11050;52.222;20.916;2023-04-24T14:30:49;6.25;;;4.88;;
21777;SDS011;11050;52.222;20.916;2023-04-24T14:33:15;9.32;;;4.97;;
21777;SDS011;11050;52.222;20.916;2023-04-24T14:35:41;10.40;;;4.90;;
21777;SDS011;11050;52.222;20.916;2023-04-24T14:38:08;6.40;;;4.97;;
21777;SDS011;11050;52.222;20.916;2023-04-24T14:40:34;6.80;;;4.30;;
21777;SDS011;11050;52.222;20.916;2023-04-24T14:43:00;6.03;;;4.40;;
21777;SDS011;11050;52.222;20.916;2023-04-24T14:45:26;4.43;;;4.03;;
21777;SDS011;11050;52.222;20.916;2023-04-24T14:47:53;7.78;;;4.38;;
21777;SDS011;11050;52.222;20.916;2023-04-24T14:50:20;6.30;;;4.13;;